sensor_id;sensor_type;location;lat;lon;timestamp;temperature;humidity
6293;DHT22;3179;54.350;10.102;2023-02-18T00:00:16;8.80;99.90
6293;DHT22;3179;54.350;10.102;2023-02-18T00:02:43;8.80;99.90
6293;DHT22;3179;54.350;10.102;2023-02-18T00:05:10;8.80;99.90
6293;DHT22;3179;54.350;10.102;2023-02-18T00:07:38;8.80;99.90
6293;DHT22;3179;54.350;10.102;2023-02-18T00:10:07;8.80;99.90
6293;DHT22;3179;54.350;10.102;2023-02-18T00:12:34;8.80;99.90
6293;DHT22;3179;54.350;10.102;2023-02-18T00:15:01;8.80;99.90
6293;DHT22;3179;54.350;10.102;2023-02-18T00:17:29;8.80;99.90
6293;DHT22;3179;54.350;10.102;2023-02-18T00:19:56;8.80;99.90
6293;DHT22;3179;54.350;10.102;2023-02-18T00:22:23;8.80;99.90
6293;DHT22;3179;54.350;10.102;2023-02-18T00:24:50;8.80;99.90
6293;DHT22;3179;54.350;10.102;2023-02-18T00:27:17;8.80;99.90
6293;DHT22;3179;54.350;10.102;2023-02-18T00:29:44;8.80;99.90
6293;DHT22;3179;54.350;10.102;2023-02-18T00:32:11;8.80;99.90
6293;DHT22;3179;54.350;10.102;2023-02-18T00:34:39;8.80;99.90
6293;DHT22;3179;54.350;10.102;2023-02-18T00:37:06;8.80;99.90
6293;DHT22;3179;54.350;10.102;2023-02-18T00:39:33;8.80;99.90
6293;DHT22;3179;54.350;10.102;2023-02-18T00:41:59;8.80;99.90
6293;DHT22;3179;54.350;10.102;2023-02-18T00:44:26;8.80;99.90
6293;DHT22;3179;54.350;10.102;2023-02-18T00:46:53;8.80;99.90
6293;DHT22;3179;54.350;10.102;2023-02-18T00:49:20;8.80;99.90
6293;DHT22;3179;54.350;10.102;2023-02-18T00:51:48;8.80;99.90
6293;DHT22;3179;54.350;10.102;2023-02-18T00:54:15;8.90;99.90
6293;DHT22;3179;54.350;10.102;2023-02-18T00:56:41;8.80;99.90
6293;DHT22;3179;54.350;10.102;2023-02-18T00:59:08;8.80;99.90
6293;DHT22;3179;54.350;10.102;2023-02-18T01:01:35;8.70;99.90
6293;DHT22;3179;54.350;10.102;2023-02-18T01:04:02;8.70;99.90
6293;DHT22;3179;54.350;10.102;2023-02-18T01:06:29;8.70;99.90
6293;DHT22;3179;54.350;10.102;2023-02-18T01:08:57;8.80;99.90
6293;DHT22;3179;54.350;10.102;2023-02-18T01:11:24;8.80;99.90
6293;DHT22;3179;54.350;10.102;2023-02-18T01:13:50;8.80;99.90
6293;DHT22;3179;54.350;10.102;2023-02-18T01:16:17;8.80;99.90
6293;DHT22;3179;54.350;10.102;2023-02-18T01:18:44;8.80;99.90
6293;DHT22;3179;54.350;10.102;2023-02-18T01:21:11;8.70;99.90
6293;DHT22;3179;54.350;10.102;2023-02-18T01:23:40;8.70;99.90
6293;DHT22;3179;54.350;10.102;2023-02-18T01:26:09;8.80;99.90
6293;DHT22;3179;54.350;10.102;2023-02-18T01:28:36;8.80;99.90
6293;DHT22;3179;54.350;10.102;2023-02-18T01:31:04;8.80;99.90
6293;DHT22;3179;54.350;10.102;2023-02-18T01:33:33;8.80;99.90
6293;DHT22;3179;54.350;10.102;2023-02-18T01:35:59;8.80;99.90
6293;DHT22;3179;54.350;10.102;2023-02-18T01:38:26;8.70;99.90
6293;DHT22;3179;54.350;10.102;2023-02-18T01:40:53;8.70;99.90
6293;DHT22;3179;54.350;10.102;2023-02-18T01:43:23;8.70;99.90
6293;DHT22;3179;54.350;10.102;2023-02-18T01:45:58;8.70;99.90
6293;DHT22;3179;54.350;10.102;2023-02-18T01:48:28;8.80;99.90
6293;DHT22;3179;54.350;10.102;2023-02-18T01:51:01;8.80;99.90
6293;DHT22;3179;54.350;10.102;2023-02-18T01:53:34;8.80;99.90
6293;DHT22;3179;54.350;10.102;2023-02-18T01:56:03;8.80;99.90
6293;DHT22;3179;54.350;10.102;2023-02-18T01:58:33;8.70;99.90
6293;DHT22;3179;54.350;10.102;2023-02-18T02:01:00;8.70;99.90
6293;DHT22;3179;54.350;10.102;2023-02-18T02:03:27;8.70;99.90
6293;DHT22;3179;54.350;10.102;2023-02-18T02:05:54;8.80;99.90
6293;DHT22;3179;54.350;10.102;2023-02-18T02:08:21;8.70;99.90
6293;DHT22;3179;54.350;10.102;2023-02-18T02:11:03;8.80;99.90
6293;DHT22;3179;54.350;10.102;2023-02-18T02:13:44;8.70;99.90
6293;DHT22;3179;54.350;10.102;2023-02-18T02:16:20;8.70;99.90
6293;DHT22;3179;54.350;10.102;2023-02-18T02:18:58;8.70;99.90
6293;DHT22;3179;54.350;10.102;2023-02-18T02:21:57;8.70;99.90
6293;DHT22;3179;54.350;10.102;2023-02-18T02:24:53;8.70;99.90
6293;DHT22;3179;54.350;10.102;2023-02-18T02:27:25;8.80;99.90
6293;DHT22;3179;54.350;10.102;2023-02-18T02:33:19;8.70;99.90
6293;DHT22;3179;54.350;10.102;2023-02-18T02:35:56;8.70;99.90
6293;DHT22;3179;54.350;10.102;2023-02-18T02:38:30;8.70;99.90
6293;DHT22;3179;54.350;10.102;2023-02-18T02:41:09;8.70;99.90
6293;DHT22;3179;54.350;10.102;2023-02-18T02:43:47;8.70;99.90
6293;DHT22;3179;54.350;10.102;2023-02-18T02:46:18;8.70;99.90
6293;DHT22;3179;54.350;10.102;2023-02-18T02:48:50;8.70;99.90
6293;DHT22;3179;54.350;10.102;2023-02-18T02:51:25;8.70;99.90
6293;DHT22;3179;54.350;10.102;2023-02-18T02:53:54;8.70;99.90
6293;DHT22;3179;54.350;10.102;2023-02-18T02:56:23;8.70;99.90
6293;DHT22;3179;54.350;10.102;2023-02-18T02:58:57;8.70;99.90
6293;DHT22;3179;54.350;10.102;2023-02-18T03:01:35;8.70;99.90
6293;DHT22;3179;54.350;10.102;2023-02-18T03:04:21;8.70;99.90
6293;DHT22;3179;54.350;10.102;2023-02-18T03:07:12;8.70;99.90
6293;DHT22;3179;54.350;10.102;2023-02-18T03:09:53;8.70;99.90
6293;DHT22;3179;54.350;10.102;2023-02-18T03:12:28;8.70;99.90
6293;DHT22;3179;54.350;10.102;2023-02-18T03:15:03;8.60;99.90
6293;DHT22;3179;54.350;10.102;2023-02-18T03:17:34;8.70;99.90
6293;DHT22;3179;54.350;10.102;2023-02-18T03:20:07;8.60;99.90
6293;DHT22;3179;54.350;10.102;2023-02-18T03:22:38;8.70;99.90
6293;DHT22;3179;54.350;10.102;2023-02-18T03:25:08;8.60;99.90
6293;DHT22;3179;54.350;10.102;2023-02-18T03:27:41;8.60;99.90
6293;DHT22;3179;54.350;10.102;2023-02-18T03:30:13;8.60;99.90
6293;DHT22;3179;54.350;10.102;2023-02-18T03:32:41;8.70;99.90
6293;DHT22;3179;54.350;10.102;2023-02-18T03:35:11;8.60;99.90
6293;DHT22;3179;54.350;10.102;2023-02-18T03:37:47;8.60;99.90
6293;DHT22;3179;54.350;10.102;2023-02-18T03:40:16;8.70;99.90
6293;DHT22;3179;54.350;10.102;2023-02-18T03:42:43;8.70;99.90
6293;DHT22;3179;54.350;10.102;2023-02-18T03:45:10;8.70;99.90
6293;DHT22;3179;54.350;10.102;2023-02-18T03:47:37;8.70;99.90
6293;DHT22;3179;54.350;10.102;2023-02-18T03:50:05;8.70;99.90
6293;DHT22;3179;54.350;10.102;2023-02-18T03:52:32;8.70;99.90
6293;DHT22;3179;54.350;10.102;2023-02-18T03:55:02;8.70;99.90
6293;DHT22;3179;54.350;10.102;2023-02-18T03:57:29;8.70;99.90
6293;DHT22;3179;54.350;10.102;2023-02-18T03:59:56;8.60;99.90
6293;DHT22;3179;54.350;10.102;2023-02-18T04:02:23;8.70;99.90
6293;DHT22;3179;54.350;10.102;2023-02-18T04:04:50;8.60;99.90
6293;DHT22;3179;54.350;10.102;2023-02-18T04:07:16;8.60;99.90
6293;DHT22;3179;54.350;10.102;2023-02-18T04:09:43;8.60;99.90
6293;DHT22;3179;54.350;10.102;2023-02-18T04:12:11;8.60;99.90
6293;DHT22;3179;54.350;10.102;2023-02-18T04:14:38;8.60;99.90
6293;DHT22;3179;54.350;10.102;2023-02-18T04:17:05;8.60;99.90
6293;DHT22;3179;54.350;10.102;2023-02-18T04:19:31;8.60;99.90
6293;DHT22;3179;54.350;10.102;2023-02-18T04:21:58;8.70;99.90
6293;DHT22;3179;54.350;10.102;2023-02-18T04:24:25;8.70;99.90
6293;DHT22;3179;54.350;10.102;2023-02-18T04:26:52;8.70;99.90
6293;DHT22;3179;54.350;10.102;2023-02-18T04:29:20;8.60;99.90
6293;DHT22;3179;54.350;10.102;2023-02-18T04:31:46;8.70;99.90
6293;DHT22;3179;54.350;10.102;2023-02-18T04:34:13;8.70;99.90
6293;DHT22;3179;54.350;10.102;2023-02-18T04:36:40;8.70;99.90
6293;DHT22;3179;54.350;10.102;2023-02-18T04:39:07;8.70;99.90
6293;DHT22;3179;54.350;10.102;2023-02-18T04:41:33;8.70;99.90
6293;DHT22;3179;54.350;10.102;2023-02-18T04:44:00;8.70;99.90
6293;DHT22;3179;54.350;10.102;2023-02-18T04:46:28;8.70;99.90
6293;DHT22;3179;54.350;10.102;2023-02-18T04:48:56;8.70;99.90
6293;DHT22;3179;54.350;10.102;2023-02-18T04:51:23;8.70;99.90
6293;DHT22;3179;54.350;10.102;2023-02-18T04:53:50;8.70;99.90
6293;DHT22;3179;54.350;10.102;2023-02-18T04:56:16;8.80;99.90
6293;DHT22;3179;54.350;10.102;2023-02-18T04:58:43;8.70;99.90
6293;DHT22;3179;54.350;10.102;2023-02-18T05:01:10;8.70;99.90
6293;DHT22;3179;54.350;10.102;2023-02-18T05:03:38;8.70;99.90
6293;DHT22;3179;54.350;10.102;2023-02-18T05:06:05;8.70;99.90
6293;DHT22;3179;54.350;10.102;2023-02-18T05:08:32;8.70;99.90
6293;DHT22;3179;54.350;10.102;2023-02-18T05:10:59;8.70;99.90
6293;DHT22;3179;54.350;10.102;2023-02-18T05:13:26;8.70;99.90
6293;DHT22;3179;54.350;10.102;2023-02-18T05:15:52;8.70;99.90
6293;DHT22;3179;54.350;10.102;2023-02-18T05:18:19;8.70;99.90
6293;DHT22;3179;54.350;10.102;2023-02-18T05:20:47;8.70;99.90
6293;DHT22;3179;54.350;10.102;2023-02-18T05:23:14;8.70;99.90
6293;DHT22;3179;54.350;10.102;2023-02-18T05:25:41;8.70;99.90
6293;DHT22;3179;54.350;10.102;2023-02-18T05:28:07;8.70;99.90
6293;DHT22;3179;54.350;10.102;2023-02-18T05:30:34;8.70;99.90
6293;DHT22;3179;54.350;10.102;2023-02-18T05:33:01;8.70;99.90
6293;DHT22;3179;54.350;10.102;2023-02-18T05:35:28;8.70;99.90
6293;DHT22;3179;54.350;10.102;2023-02-18T05:37:56;8.70;99.90
6293;DHT22;3179;54.350;10.102;2023-02-18T05:40:22;8.70;99.90
6293;DHT22;3179;54.350;10.102;2023-02-18T05:42:49;8.70;99.90
6293;DHT22;3179;54.350;10.102;2023-02-18T05:45:16;8.70;99.90
6293;DHT22;3179;54.350;10.102;2023-02-18T05:47:43;8.70;99.90
6293;DHT22;3179;54.350;10.102;2023-02-18T05:50:10;8.70;99.90
6293;DHT22;3179;54.350;10.102;2023-02-18T05:52:36;8.70;99.90
6293;DHT22;3179;54.350;10.102;2023-02-18T05:55:05;8.60;99.90
6293;DHT22;3179;54.350;10.102;2023-02-18T05:57:32;8.70;99.90
6293;DHT22;3179;54.350;10.102;2023-02-18T05:59:59;8.70;99.90
6293;DHT22;3179;54.350;10.102;2023-02-18T06:02:25;8.60;99.90
6293;DHT22;3179;54.350;10.102;2023-02-18T06:04:52;8.60;99.90
6293;DHT22;3179;54.350;10.102;2023-02-18T06:07:19;8.60;99.90
6293;DHT22;3179;54.350;10.102;2023-02-18T06:09:46;8.60;99.90
6293;DHT22;3179;54.350;10.102;2023-02-18T06:12:14;8.60;99.90
6293;DHT22;3179;54.350;10.102;2023-02-18T06:14:41;8.60;99.90
6293;DHT22;3179;54.350;10.102;2023-02-18T06:17:08;8.60;99.90
6293;DHT22;3179;54.350;10.102;2023-02-18T06:19:35;8.60;99.90
6293;DHT22;3179;54.350;10.102;2023-02-18T06:22:01;8.60;99.90
6293;DHT22;3179;54.350;10.102;2023-02-18T06:24:28;8.60;99.90
6293;DHT22;3179;54.350;10.102;2023-02-18T06:26:55;8.60;99.90
6293;DHT22;3179;54.350;10.102;2023-02-18T06:29:23;8.60;99.90
6293;DHT22;3179;54.350;10.102;2023-02-18T06:31:50;8.60;99.90
6293;DHT22;3179;54.350;10.102;2023-02-18T06:34:17;8.60;99.90
6293;DHT22;3179;54.350;10.102;2023-02-18T06:36:43;8.60;99.90
6293;DHT22;3179;54.350;10.102;2023-02-18T06:39:10;8.60;99.90
6293;DHT22;3179;54.350;10.102;2023-02-18T06:41:37;8.60;99.90
6293;DHT22;3179;54.350;10.102;2023-02-18T06:44:05;8.60;99.90
6293;DHT22;3179;54.350;10.102;2023-02-18T06:46:33;8.60;99.90
6293;DHT22;3179;54.350;10.102;2023-02-18T06:49:00;8.60;99.90
6293;DHT22;3179;54.350;10.102;2023-02-18T06:51:26;8.60;99.90
6293;DHT22;3179;54.350;10.102;2023-02-18T06:53:53;8.60;99.90
6293;DHT22;3179;54.350;10.102;2023-02-18T06:56:20;8.60;99.90
6293;DHT22;3179;54.350;10.102;2023-02-18T06:58:47;8.60;99.90
6293;DHT22;3179;54.350;10.102;2023-02-18T07:01:13;8.60;99.90
6293;DHT22;3179;54.350;10.102;2023-02-18T07:03:41;8.60;99.90
6293;DHT22;3179;54.350;10.102;2023-02-18T07:06:08;8.60;99.90
6293;DHT22;3179;54.350;10.102;2023-02-18T07:08:35;8.60;99.90
6293;DHT22;3179;54.350;10.102;2023-02-18T07:11:02;8.60;99.90
6293;DHT22;3179;54.350;10.102;2023-02-18T07:13:29;8.60;99.90
6293;DHT22;3179;54.350;10.102;2023-02-18T07:15:56;8.50;99.90
6293;DHT22;3179;54.350;10.102;2023-02-18T07:18:23;8.50;99.90
6293;DHT22;3179;54.350;10.102;2023-02-18T07:20:51;8.50;99.90
6293;DHT22;3179;54.350;10.102;2023-02-18T07:23:18;8.50;99.90
6293;DHT22;3179;54.350;10.102;2023-02-18T07:25:44;8.50;99.90
6293;DHT22;3179;54.350;10.102;2023-02-18T07:28:11;8.50;99.90
6293;DHT22;3179;54.350;10.102;2023-02-18T07:30:38;8.50;99.90
6293;DHT22;3179;54.350;10.102;2023-02-18T07:33:05;8.50;99.90
6293;DHT22;3179;54.350;10.102;2023-02-18T07:35:32;8.50;99.90
6293;DHT22;3179;54.350;10.102;2023-02-18T07:38:00;8.50;99.90
6293;DHT22;3179;54.350;10.102;2023-02-18T07:40:27;8.50;99.90
6293;DHT22;3179;54.350;10.102;2023-02-18T07:42:54;8.50;99.90
6293;DHT22;3179;54.350;10.102;2023-02-18T07:45:21;8.50;99.90
6293;DHT22;3179;54.350;10.102;2023-02-18T07:47:47;8.50;99.90
6293;DHT22;3179;54.350;10.102;2023-02-18T07:50:14;8.50;99.90
6293;DHT22;3179;54.350;10.102;2023-02-18T07:52:41;8.50;99.90
6293;DHT22;3179;54.350;10.102;2023-02-18T07:55:09;8.50;99.90
6293;DHT22;3179;54.350;10.102;2023-02-18T07:57:36;8.50;99.90
6293;DHT22;3179;54.350;10.102;2023-02-18T08:00:22;8.50;99.90
6293;DHT22;3179;54.350;10.102;2023-02-18T08:02:49;8.50;99.90
6293;DHT22;3179;54.350;10.102;2023-02-18T08:05:16;8.50;99.90
6293;DHT22;3179;54.350;10.102;2023-02-18T08:07:42;8.50;99.90
6293;DHT22;3179;54.350;10.102;2023-02-18T08:10:11;8.50;99.90
6293;DHT22;3179;54.350;10.102;2023-02-18T08:12:37;8.50;99.90
6293;DHT22;3179;54.350;10.102;2023-02-18T08:15:05;8.50;99.90
6293;DHT22;3179;54.350;10.102;2023-02-18T08:17:31;8.60;99.90
6293;DHT22;3179;54.350;10.102;2023-02-18T08:19:58;8.60;99.90
6293;DHT22;3179;54.350;10.102;2023-02-18T08:22:25;8.60;99.90
6293;DHT22;3179;54.350;10.102;2023-02-18T08:24:53;8.60;99.90
6293;DHT22;3179;54.350;10.102;2023-02-18T08:27:22;8.60;99.90
6293;DHT22;3179;54.350;10.102;2023-02-18T08:29:49;8.60;99.90
6293;DHT22;3179;54.350;10.102;2023-02-18T08:32:16;8.60;99.90
6293;DHT22;3179;54.350;10.102;2023-02-18T08:34:43;8.60;99.90
6293;DHT22;3179;54.350;10.102;2023-02-18T08:37:10;8.60;99.90
6293;DHT22;3179;54.350;10.102;2023-02-18T08:39:37;8.60;99.90
6293;DHT22;3179;54.350;10.102;2023-02-18T08:42:04;8.50;99.90
6293;DHT22;3179;54.350;10.102;2023-02-18T08:44:32;8.50;99.90
6293;DHT22;3179;54.350;10.102;2023-02-18T08:46:59;8.50;99.90
6293;DHT22;3179;54.350;10.102;2023-02-18T08:49:26;8.60;99.90
6293;DHT22;3179;54.350;10.102;2023-02-18T08:51:53;8.60;99.90
6293;DHT22;3179;54.350;10.102;2023-02-18T08:54:19;8.50;99.90
6293;DHT22;3179;54.350;10.102;2023-02-18T08:56:47;8.50;99.90
6293;DHT22;3179;54.350;10.102;2023-02-18T08:59:13;8.50;99.90
6293;DHT22;3179;54.350;10.102;2023-02-18T09:01:41;8.50;99.90
6293;DHT22;3179;54.350;10.102;2023-02-18T09:04:08;8.50;99.90
6293;DHT22;3179;54.350;10.102;2023-02-18T09:06:36;8.50;99.90
6293;DHT22;3179;54.350;10.102;2023-02-18T09:09:03;8.60;99.90
6293;DHT22;3179;54.350;10.102;2023-02-18T09:11:30;8.60;99.90
6293;DHT22;3179;54.350;10.102;2023-02-18T09:13:57;8.60;99.90
6293;DHT22;3179;54.350;10.102;2023-02-18T09:16:24;8.60;99.90
6293;DHT22;3179;54.350;10.102;2023-02-18T09:18:54;8.60;99.90
6293;DHT22;3179;54.350;10.102;2023-02-18T09:21:21;8.50;99.90
6293;DHT22;3179;54.350;10.102;2023-02-18T09:23:49;8.50;99.90
6293;DHT22;3179;54.350;10.102;2023-02-18T09:26:18;8.50;99.90
6293;DHT22;3179;54.350;10.102;2023-02-18T09:28:47;8.50;99.90
6293;DHT22;3179;54.350;10.102;2023-02-18T09:31:16;8.50;99.90
6293;DHT22;3179;54.350;10.102;2023-02-18T09:33:45;8.50;99.90
6293;DHT22;3179;54.350;10.102;2023-02-18T09:36:14;8.40;99.90
6293;DHT22;3179;54.350;10.102;2023-02-18T09:38:41;8.40;99.90
6293;DHT22;3179;54.350;10.102;2023-02-18T09:41:13;8.30;99.90
6293;DHT22;3179;54.350;10.102;2023-02-18T09:43:43;8.30;99.90
6293;DHT22;3179;54.350;10.102;2023-02-18T09:46:17;8.30;99.90
6293;DHT22;3179;54.350;10.102;2023-02-18T09:48:46;8.20;99.90
6293;DHT22;3179;54.350;10.102;2023-02-18T09:51:15;8.20;99.90
6293;DHT22;3179;54.350;10.102;2023-02-18T09:53:43;8.10;99.90
6293;DHT22;3179;54.350;10.102;2023-02-18T09:56:11;8.10;99.90
6293;DHT22;3179;54.350;10.102;2023-02-18T09:58:40;8.10;99.90
6293;DHT22;3179;54.350;10.102;2023-02-18T10:01:14;8.10;99.90
6293;DHT22;3179;54.350;10.102;2023-02-18T10:03:44;8.10;99.90
6293;DHT22;3179;54.350;10.102;2023-02-18T10:06:16;8.10;99.90
6293;DHT22;3179;54.350;10.102;2023-02-18T10:08:45;8.00;99.90
6293;DHT22;3179;54.350;10.102;2023-02-18T10:11:15;8.00;99.90
6293;DHT22;3179;54.350;10.102;2023-02-18T10:13:43;8.00;99.90
6293;DHT22;3179;54.350;10.102;2023-02-18T10:16:16;8.00;99.90
6293;DHT22;3179;54.350;10.102;2023-02-18T10:18:45;8.10;99.90
6293;DHT22;3179;54.350;10.102;2023-02-18T10:21:18;8.10;99.90
6293;DHT22;3179;54.350;10.102;2023-02-18T10:23:52;8.10;99.90
6293;DHT22;3179;54.350;10.102;2023-02-18T10:26:19;8.20;99.90
6293;DHT22;3179;54.350;10.102;2023-02-18T10:28:46;8.20;99.90
6293;DHT22;3179;54.350;10.102;2023-02-18T10:31:17;8.30;99.90
6293;DHT22;3179;54.350;10.102;2023-02-18T10:33:50;8.30;99.90
6293;DHT22;3179;54.350;10.102;2023-02-18T10:36:25;8.30;99.90
6293;DHT22;3179;54.350;10.102;2023-02-18T10:39:04;8.30;99.90
6293;DHT22;3179;54.350;10.102;2023-02-18T10:41:39;8.30;99.90
6293;DHT22;3179;54.350;10.102;2023-02-18T10:44:14;8.30;99.90
6293;DHT22;3179;54.350;10.102;2023-02-18T10:46:55;8.30;99.90
6293;DHT22;3179;54.350;10.102;2023-02-18T10:52:21;8.40;99.90
6293;DHT22;3179;54.350;10.102;2023-02-18T10:54:51;8.40;99.90
6293;DHT22;3179;54.350;10.102;2023-02-18T10:57:20;8.40;99.90
6293;DHT22;3179;54.350;10.102;2023-02-18T10:59:58;8.40;99.90
6293;DHT22;3179;54.350;10.102;2023-02-18T11:02:28;8.40;99.90
6293;DHT22;3179;54.350;10.102;2023-02-18T11:04:59;8.40;99.90
6293;DHT22;3179;54.350;10.102;2023-02-18T11:07:34;8.40;99.90
6293;DHT22;3179;54.350;10.102;2023-02-18T11:10:14;8.40;99.90
6293;DHT22;3179;54.350;10.102;2023-02-18T11:12:44;8.40;99.90
6293;DHT22;3179;54.350;10.102;2023-02-18T11:15:18;8.40;99.90
6293;DHT22;3179;54.350;10.102;2023-02-18T11:17:46;8.40;99.90
6293;DHT22;3179;54.350;10.102;2023-02-18T11:20:29;8.40;99.90
6293;DHT22;3179;54.350;10.102;2023-02-18T11:23:13;8.30;99.90
6293;DHT22;3179;54.350;10.102;2023-02-18T11:25:51;8.30;99.90
6293;DHT22;3179;54.350;10.102;2023-02-18T11:28:28;8.30;99.90
6293;DHT22;3179;54.350;10.102;2023-02-18T11:30:58;8.30;99.90
6293;DHT22;3179;54.350;10.102;2023-02-18T11:33:31;8.30;99.90
6293;DHT22;3179;54.350;10.102;2023-02-18T11:36:04;8.30;99.90
6293;DHT22;3179;54.350;10.102;2023-02-18T11:38:42;8.30;99.90
6293;DHT22;3179;54.350;10.102;2023-02-18T11:41:12;8.30;99.90
6293;DHT22;3179;54.350;10.102;2023-02-18T11:43:41;8.30;99.90
6293;DHT22;3179;54.350;10.102;2023-02-18T11:46:09;8.30;99.90
6293;DHT22;3179;54.350;10.102;2023-02-18T11:48:36;8.30;99.90
6293;DHT22;3179;54.350;10.102;2023-02-18T11:51:04;8.30;99.90
6293;DHT22;3179;54.350;10.102;2023-02-18T11:53:32;8.20;99.90
6293;DHT22;3179;54.350;10.102;2023-02-18T11:56:03;8.20;99.90
6293;DHT22;3179;54.350;10.102;2023-02-18T11:58:37;8.10;99.90
6293;DHT22;3179;54.350;10.102;2023-02-18T12:01:06;8.10;99.90
6293;DHT22;3179;54.350;10.102;2023-02-18T12:03:41;8.10;99.90
6293;DHT22;3179;54.350;10.102;2023-02-18T12:06:13;8.10;99.90
6293;DHT22;3179;54.350;10.102;2023-02-18T12:08:47;8.10;99.90
6293;DHT22;3179;54.350;10.102;2023-02-18T12:11:23;8.00;99.90
6293;DHT22;3179;54.350;10.102;2023-02-18T12:13:54;8.00;99.90
6293;DHT22;3179;54.350;10.102;2023-02-18T12:16:27;7.90;99.90
6293;DHT22;3179;54.350;10.102;2023-02-18T12:19:02;7.90;99.90
6293;DHT22;3179;54.350;10.102;2023-02-18T12:21:39;7.90;99.90
6293;DHT22;3179;54.350;10.102;2023-02-18T12:24:21;7.90;99.90
6293;DHT22;3179;54.350;10.102;2023-02-18T12:26:57;8.00;99.90
6293;DHT22;3179;54.350;10.102;2023-02-18T12:29:45;7.90;99.90
6293;DHT22;3179;54.350;10.102;2023-02-18T12:32:27;7.90;99.90
6293;DHT22;3179;54.350;10.102;2023-02-18T12:35:10;7.90;99.90
6293;DHT22;3179;54.350;10.102;2023-02-18T12:38:03;7.80;99.90
6293;DHT22;3179;54.350;10.102;2023-02-18T12:40:45;7.70;99.90
6293;DHT22;3179;54.350;10.102;2023-02-18T12:43:21;7.70;99.90
6293;DHT22;3179;54.350;10.102;2023-02-18T12:46:18;7.70;99.90
6293;DHT22;3179;54.350;10.102;2023-02-18T12:49:04;7.80;99.90
6293;DHT22;3179;54.350;10.102;2023-02-18T12:51:45;7.80;99.90
6293;DHT22;3179;54.350;10.102;2023-02-18T12:54:30;7.80;99.90
6293;DHT22;3179;54.350;10.102;2023-02-18T12:57:23;7.80;99.90
6293;DHT22;3179;54.350;10.102;2023-02-18T13:03:17;7.80;99.90
6293;DHT22;3179;54.350;10.102;2023-02-18T13:05:56;7.80;99.90
6293;DHT22;3179;54.350;10.102;2023-02-18T13:08:36;7.80;99.90
6293;DHT22;3179;54.350;10.102;2023-02-18T13:11:22;7.80;99.90
6293;DHT22;3179;54.350;10.102;2023-02-18T13:13:56;7.80;99.90
6293;DHT22;3179;54.350;10.102;2023-02-18T13:16:25;7.80;99.90
6293;DHT22;3179;54.350;10.102;2023-02-18T13:18:59;7.90;99.90
6293;DHT22;3179;54.350;10.102;2023-02-18T13:21:28;8.00;99.90
6293;DHT22;3179;54.350;10.102;2023-02-18T13:23:58;8.10;99.90
6293;DHT22;3179;54.350;10.102;2023-02-18T13:26:27;8.10;99.90
6293;DHT22;3179;54.350;10.102;2023-02-18T13:29:07;8.20;99.90
6293;DHT22;3179;54.350;10.102;2023-02-18T13:31:45;8.10;99.90
6293;DHT22;3179;54.350;10.102;2023-02-18T13:34:23;8.20;99.90
6293;DHT22;3179;54.350;10.102;2023-02-18T13:36:58;8.20;99.90
6293;DHT22;3179;54.350;10.102;2023-02-18T13:39:29;8.30;99.90
6293;DHT22;3179;54.350;10.102;2023-02-18T13:42:19;8.30;99.90
6293;DHT22;3179;54.350;10.102;2023-02-18T13:47:48;8.20;99.90
6293;DHT22;3179;54.350;10.102;2023-02-18T13:50:38;8.20;99.90
6293;DHT22;3179;54.350;10.102;2023-02-18T13:53:20;8.20;99.90
6293;DHT22;3179;54.350;10.102;2023-02-18T13:55:59;8.20;99.90
6293;DHT22;3179;54.350;10.102;2023-02-18T13:58:31;8.20;99.90
6293;DHT22;3179;54.350;10.102;2023-02-18T14:01:01;8.30;99.90
6293;DHT22;3179;54.350;10.102;2023-02-18T14:03:36;8.30;99.90
6293;DHT22;3179;54.350;10.102;2023-02-18T14:06:17;8.30;99.90
6293;DHT22;3179;54.350;10.102;2023-02-18T14:08:45;8.40;99.90
6293;DHT22;3179;54.350;10.102;2023-02-18T14:11:33;8.40;99.90
6293;DHT22;3179;54.350;10.102;2023-02-18T14:14:35;8.50;99.90
6293;DHT22;3179;54.350;10.102;2023-02-18T14:17:31;8.50;99.90
6293;DHT22;3179;54.350;10.102;2023-02-18T14:20:30;8.50;99.90
6293;DHT22;3179;54.350;10.102;2023-02-18T14:22:59;8.50;99.90
6293;DHT22;3179;54.350;10.102;2023-02-18T14:25:38;8.50;99.90
6293;DHT22;3179;54.350;10.102;2023-02-18T14:28:40;8.50;99.90
6293;DHT22;3179;54.350;10.102;2023-02-18T14:31:46;8.50;99.90
6293;DHT22;3179;54.350;10.102;2023-02-18T14:40:39;8.40;99.90
6293;DHT22;3179;54.350;10.102;2023-02-18T14:43:16;8.50;99.90
6293;DHT22;3179;54.350;10.102;2023-02-18T14:46:04;8.50;99.90
6293;DHT22;3179;54.350;10.102;2023-02-18T14:48:58;8.50;99.90
6293;DHT22;3179;54.350;10.102;2023-02-18T14:51:30;8.50;99.90
6293;DHT22;3179;54.350;10.102;2023-02-18T14:54:02;8.40;99.90
6293;DHT22;3179;54.350;10.102;2023-02-18T14:56:32;8.50;99.90
6293;DHT22;3179;54.350;10.102;2023-02-18T14:59:03;8.50;99.90
6293;DHT22;3179;54.350;10.102;2023-02-18T15:01:32;8.50;99.90
6293;DHT22;3179;54.350;10.102;2023-02-18T15:04:00;8.50;99.90
6293;DHT22;3179;54.350;10.102;2023-02-18T15:06:31;8.50;99.90
6293;DHT22;3179;54.350;10.102;2023-02-18T15:08:58;8.40;99.90
6293;DHT22;3179;54.350;10.102;2023-02-18T15:11:34;8.40;99.90
6293;DHT22;3179;54.350;10.102;2023-02-18T15:14:07;8.40;99.90
6293;DHT22;3179;54.350;10.102;2023-02-18T15:16:36;8.40;99.90
6293;DHT22;3179;54.350;10.102;2023-02-18T15:19:05;8.40;99.90
6293;DHT22;3179;54.350;10.102;2023-02-18T15:21:38;8.30;99.90
6293;DHT22;3179;54.350;10.102;2023-02-18T15:24:08;8.30;99.90
6293;DHT22;3179;54.350;10.102;2023-02-18T15:26:44;8.30;99.90
6293;DHT22;3179;54.350;10.102;2023-02-18T15:29:17;8.30;99.90
6293;DHT22;3179;54.350;10.102;2023-02-18T15:31:46;8.20;99.90
6293;DHT22;3179;54.350;10.102;2023-02-18T15:34:35;8.20;99.90
6293;DHT22;3179;54.350;10.102;2023-02-18T15:37:04;8.20;99.90
6293;DHT22;3179;54.350;10.102;2023-02-18T15:39:31;8.20;99.90
6293;DHT22;3179;54.350;10.102;2023-02-18T15:42:01;8.10;99.90
6293;DHT22;3179;54.350;10.102;2023-02-18T15:44:32;8.10;99.90
6293;DHT22;3179;54.350;10.102;2023-02-18T15:47:01;8.20;99.90
6293;DHT22;3179;54.350;10.102;2023-02-18T15:49:28;8.20;99.90
6293;DHT22;3179;54.350;10.102;2023-02-18T15:51:58;8.20;99.90
6293;DHT22;3179;54.350;10.102;2023-02-18T15:54:26;8.20;99.90
6293;DHT22;3179;54.350;10.102;2023-02-18T15:56:55;8.20;99.90
6293;DHT22;3179;54.350;10.102;2023-02-18T15:59:27;8.10;99.90
6293;DHT22;3179;54.350;10.102;2023-02-18T16:01:56;8.10;99.90
6293;DHT22;3179;54.350;10.102;2023-02-18T16:04:28;8.20;99.90
6293;DHT22;3179;54.350;10.102;2023-02-18T16:07:00;8.20;99.90
6293;DHT22;3179;54.350;10.102;2023-02-18T16:09:31;8.10;99.90
6293;DHT22;3179;54.350;10.102;2023-02-18T16:12:01;8.10;99.90
6293;DHT22;3179;54.350;10.102;2023-02-18T16:14:32;8.10;99.90
6293;DHT22;3179;54.350;10.102;2023-02-18T16:17:11;8.10;99.90
6293;DHT22;3179;54.350;10.102;2023-02-18T16:19:46;8.00;99.90
6293;DHT22;3179;54.350;10.102;2023-02-18T16:22:26;8.00;99.90
6293;DHT22;3179;54.350;10.102;2023-02-18T16:24:59;8.00;99.90
6293;DHT22;3179;54.350;10.102;2023-02-18T16:27:34;7.90;99.90
6293;DHT22;3179;54.350;10.102;2023-02-18T16:30:13;7.90;99.90
6293;DHT22;3179;54.350;10.102;2023-02-18T16:32:41;7.90;99.90
6293;DHT22;3179;54.350;10.102;2023-02-18T16:35:08;7.80;99.90
6293;DHT22;3179;54.350;10.102;2023-02-18T16:37:35;7.80;99.90
6293;DHT22;3179;54.350;10.102;2023-02-18T16:40:21;7.80;99.90
6293;DHT22;3179;54.350;10.102;2023-02-18T16:42:48;7.80;99.90
6293;DHT22;3179;54.350;10.102;2023-02-18T16:45:16;7.80;99.90